Terminal Aerodrome Forecast
Issued by NWS Cleveland, OH

Home | Current Version | Previous Version | Graphics & Text | Print | Product List | Glossary On
Versions: 1 2 3 4 5 6 7 8 9 10 11 12 13 14 15 16 17 18
000
FTUS41 KCLE 250524
TAFTOL
TAF
KTOL 250524Z 2506/2606 23003KT P6SM SKC
      TEMPO 2509/2511 5SM BR
     FM251500 23010KT P6SM SCT040 SCT150 PROB30 2522/2603 -TSRA
      BKN040CB
     FM260500 26005KT P6SM BKN040 BKN150=

USA.gov is the U.S. government's official web portal to all federal, state and local government web resources and services.